Time;durP1;ratioP1;P1;durP2;ratioP2;P2;SDS_P1;SDS_P2;PMS_P1;PMS_P2;Temp;Humidity;BMP_temperature;BMP_pressure;BME280_temperature;BME280_humidity;BME280_pressure;Samples;Min_cycle;Max_cycle;Signal;HPM_P1;HPM_P2
2023/03/14 00:00:19;;;;;;;;;;;;;;;9.16;32.61;99239.63;5057985;28;19938;-76
2023/03/14 00:02:45;;;;;;;;;;;;;;;9.16;32.13;99237.03;5074638;28;19916;-75
2023/03/14 00:05:10;;;;;;;;;;;;;;;9.13;32.02;99228.56;5057929;28;19973;-75
2023/03/14 00:07:36;;;;;;;;;;;;;;;9.10;32.06;99226.97;5074307;28;19920;-75
2023/03/14 00:10:04;;;;;;;;;;;;;;;9.07;32.35;99224.56;5057865;28;19924;-75
2023/03/14 00:12:29;;;;;;;;;;;;;;;9.02;32.32;99230.06;5057984;28;19920;-75
2023/03/14 00:14:54;;;;;;;;;;;;;;;9.00;32.36;99221.50;5074590;28;19922;-76
2023/03/14 00:17:20;;;;;;;;;;;;;;;8.98;32.21;99218.19;5074597;28;20035;-77
2023/03/14 00:19:45;;;;;;;;;;;;;;;8.96;32.03;99216.59;5092534;28;19916;-74
2023/03/14 00:22:10;;;;;;;;;;;;;;;8.93;32.17;99209.78;5092640;28;19916;-74
2023/03/14 00:24:35;;;;;;;;;;;;;;;8.93;32.22;99209.78;5074182;28;20391;-74
2023/03/14 00:27:01;;;;;;;;;;;;;;;8.93;32.23;99211.56;5057137;28;19928;-74
2023/03/14 00:29:26;;;;;;;;;;;;;;;8.91;32.08;99203.84;5074240;28;19920;-74
2023/03/14 00:31:51;;;;;;;;;;;;;;;8.91;32.21;99208.22;5074708;28;19916;-74
2023/03/14 00:34:17;;;;;;;;;;;;;;;8.90;32.00;99198.75;5074022;28;19917;-74
2023/03/14 00:36:42;;;;;;;;;;;;;;;8.86;32.19;99201.53;5074617;28;19916;-74
2023/03/14 00:39:07;;;;;;;;;;;;;;;8.85;32.12;99196.41;5074732;28;20393;-74
2023/03/14 00:41:32;;;;;;;;;;;;;;;8.82;32.19;99201.81;5092376;28;20031;-74
2023/03/14 00:43:58;;;;;;;;;;;;;;;8.81;32.58;99194.94;5092434;28;20011;-74
2023/03/14 00:46:23;;;;;;;;;;;;;;;8.81;32.37;99194.94;5092294;28;19920;-74
2023/03/14 00:48:48;;;;;;;;;;;;;;;8.78;32.19;99189.94;5092458;28;19916;-74
2023/03/14 00:51:14;;;;;;;;;;;;;;;8.76;32.42;99191.78;5078111;28;19917;-74
2023/03/14 00:53:40;;;;;;;;;;;;;;;8.73;32.52;99186.75;5078263;28;19923;-75
2023/03/14 00:56:06;;;;;;;;;;;;;;;8.68;32.72;99177.47;5078231;28;19916;-75
2023/03/14 00:58:32;;;;;;;;;;;;;;;8.66;33.04;99173.28;5061310;28;20006;-76
2023/03/14 01:00:57;;;;;;;;;;;;;;;8.63;32.79;99178.69;5077934;28;19974;-76
2023/03/14 01:03:23;;;;;;;;;;;;;;;8.59;33.07;99172.84;5095895;28;19920;-76
2023/03/14 01:05:49;;;;;;;;;;;;;;;8.58;33.30;99178.94;5077896;28;20383;-76
2023/03/14 01:08:14;;;;;;;;;;;;;;;8.55;33.20;99168.72;5077836;28;19916;-76
2023/03/14 01:10:40;;;;;;;;;;;;;;;8.51;33.43;99164.66;5095766;28;19917;-76
2023/03/14 01:13:05;;;;;;;;;;;;;;;8.49;33.46;99159.56;5077829;28;19955;-76
2023/03/14 01:15:32;;;;;;;;;;;;;;;8.49;33.31;99153.50;5096076;28;19924;-76
2023/03/14 01:17:57;;;;;;;;;;;;;;;8.44;33.66;99158.97;5077452;28;20299;-76
2023/03/14 01:20:22;;;;;;;;;;;;;;;8.43;33.40;99151.22;5077317;28;19923;-76
2023/03/14 01:22:47;;;;;;;;;;;;;;;8.41;33.57;99151.34;5077553;28;20401;-76
2023/03/14 01:25:14;;;;;;;;;;;;;;;8.39;33.61;99141.97;5095588;28;19927;-75
2023/03/14 01:27:39;;;;;;;;;;;;;;;8.38;33.68;99148.06;5077313;28;20436;-75
2023/03/14 01:30:05;;;;;;;;;;;;;;;8.35;33.99;99146.53;5095155;28;20014;-75
2023/03/14 01:32:30;;;;;;;;;;;;;;;8.32;34.28;99136.28;5077482;28;20314;-75
2023/03/14 01:34:55;;;;;;;;;;;;;;;8.30;34.26;99132.94;5076967;28;20366;-75
2023/03/14 01:37:21;;;;;;;;;;;;;;;8.29;34.47;99129.50;5077685;28;19923;-76
2023/03/14 01:39:46;;;;;;;;;;;;;;;8.28;34.32;99129.59;5077833;28;19920;-75
2023/03/14 01:42:11;;;;;;;;;;;;;;;8.30;34.22;99125.13;5095222;28;19916;-75
2023/03/14 01:44:50;;;;;;;;;;;;;;;8.30;33.81;99128.59;5076758;28;19916;-75
2023/03/14 01:47:15;;;;;;;;;;;;;;;8.29;34.68;99128.69;5095524;28;19916;-75
2023/03/14 01:49:40;;;;;;;;;;;;;;;8.27;34.71;99127.91;5095154;28;19916;-75
2023/03/14 01:52:13;;;;;;;;;;;;;;;8.24;34.58;99120.28;5095550;28;19977;-75
2023/03/14 01:55:02;;;;;;;;;;;;;;;8.23;34.61;99114.28;5093945;28;19916;-75
2023/03/14 01:57:27;;;;;;;;;;;;;;;8.22;34.77;99111.75;5013441;28;20016;-75
2023/03/14 01:59:54;;;;;;;;;;;;;;;8.20;34.58;99117.06;5012898;28;20000;-75
2023/03/14 02:02:19;;;;;;;;;;;;;;;8.20;34.62;99117.06;5011655;28;20377;-75
2023/03/14 02:04:44;;;;;;;;;;;;;;;8.21;34.58;99118.72;4996343;28;19952;-75
2023/03/14 02:07:28;;;;;;;;;;;;;;;8.20;34.88;99113.63;4996294;28;20015;-75
2023/03/14 02:09:54;;;;;;;;;;;;;;;8.15;34.63;99108.69;5012839;28;19917;-75
2023/03/14 02:12:19;;;;;;;;;;;;;;;8.13;34.82;99114.00;4996536;28;20408;-76
2023/03/14 02:14:47;;;;;;;;;;;;;;;8.11;34.94;99115.84;4996811;28;19924;-75
2023/03/14 02:17:13;;;;;;;;;;;;;;;8.08;35.13;99115.19;4996609;28;20032;-75
2023/03/14 02:19:47;;;;;;;;;;;;;;;8.06;34.50;99117.88;4996275;28;20004;-75
2023/03/14 02:22:13;;;;;;;;;;;;;;;8.05;35.22;99117.97;5012222;28;20013;-75
2023/03/14 02:24:47;;;;;;;;;;;;;;;8.05;34.68;99115.38;4995672;28;19918;-75
2023/03/14 02:27:16;;;;;;;;;;;;;;;8.05;34.70;99117.97;5012088;28;19934;-76
2023/03/14 02:29:51;;;;;;;;;;;;;;;8.04;34.97;99117.13;4995890;28;19925;-75
2023/03/14 02:32:17;;;;;;;;;;;;;;;8.01;35.16;99114.72;4995974;28;19922;-75
2023/03/14 02:34:42;;;;;;;;;;;;;;;8.00;35.29;99120.88;5045085;28;20367;-75
2023/03/14 02:37:07;;;;;;;;;;;;;;;7.95;35.00;99121.13;5095143;28;19923;-75
2023/03/14 02:39:40;;;;;;;;;;;;;;;7.94;35.29;99126.44;5093043;28;20448;-76
2023/03/14 02:42:05;;;;;;;;;;;;;;;7.91;35.50;99124.84;5075934;28;19958;-76
2023/03/14 02:44:30;;;;;;;;;;;;;;;7.92;35.09;99128.25;5093287;28;19955;-76
2023/03/14 02:46:55;;;;;;;;;;;;;;;7.89;35.76;99118.91;5093989;28;19923;-76
2023/03/14 02:49:21;;;;;;;;;;;;;;;7.88;35.79;99127.63;5093755;28;20026;-76
2023/03/14 02:51:46;;;;;;;;;;;;;;;7.86;35.72;99123.41;5076112;28;19920;-76
2023/03/14 02:54:11;;;;;;;;;;;;;;;7.84;36.12;99125.28;5092662;28;19981;-76
2023/03/14 02:56:37;;;;;;;;;;;;;;;7.83;35.91;99115.81;5093923;28;19916;-76
2023/03/14 02:59:03;;;;;;;;;;;;;;;7.82;35.76;99124.53;5093742;28;19924;-76
2023/03/14 03:01:28;;;;;;;;;;;;;;;7.82;36.09;99119.34;5092566;28;20311;-76
2023/03/14 03:03:53;;;;;;;;;;;;;;;7.81;36.24;99121.09;5092504;28;19971;-76
2023/03/14 03:06:19;;;;;;;;;;;;;;;7.82;35.86;99116.75;5092835;28;19965;-76
2023/03/14 03:08:44;;;;;;;;;;;;;;;7.82;37.20;99119.34;5092637;28;20018;-76
2023/03/14 03:11:09;;;;;;;;;;;;;;;7.81;36.67;99112.47;5075219;28;19916;-76
2023/03/14 03:13:34;;;;;;;;;;;;;;;7.81;37.04;99120.25;5093275;28;20343;-76
2023/03/14 03:16:00;;;;;;;;;;;;;;;7.79;36.90;99113.38;5075417;28;19923;-76
2023/03/14 03:18:25;;;;;;;;;;;;;;;7.77;37.06;99124.81;5093424;28;19923;-76
2023/03/14 03:20:50;;;;;;;;;;;;;;;7.77;37.35;99117.03;5074916;28;19948;-76
2023/03/14 03:23:16;;;;;;;;;;;;;;;7.78;37.23;99110.91;5093172;28;20421;-76
2023/03/14 03:25:41;;;;;;;;;;;;;;;7.76;37.24;99116.19;5092065;28;19924;-76
2023/03/14 03:28:07;;;;;;;;;;;;;;;7.76;37.46;99120.53;5075259;28;19927;-76
2023/03/14 03:30:39;;;;;;;;;;;;;;;7.72;37.77;99116.47;5074956;28;19922;-76
2023/03/14 03:33:05;;;;;;;;;;;;;;;7.70;37.81;99118.28;5091834;28;20016;-76
2023/03/14 03:35:30;;;;;;;;;;;;;;;7.69;37.79;99117.47;5092125;28;19960;-76
2023/03/14 03:37:55;;;;;;;;;;;;;;;7.67;37.76;99111.53;5091879;28;19916;-76
2023/03/14 03:40:20;;;;;;;;;;;;;;;7.68;38.27;99109.75;5092557;28;20386;-76
2023/03/14 03:42:47;;;;;;;;;;;;;;;7.67;38.03;99103.72;5091951;28;19920;-76
2023/03/14 03:45:12;;;;;;;;;;;;;;;7.68;38.48;99107.16;5093116;28;19916;-76
2023/03/14 03:47:37;;;;;;;;;;;;;;;7.68;38.90;99109.75;5092722;28;20371;-76
2023/03/14 03:50:03;;;;;;;;;;;;;;;7.64;38.85;99106.50;5074752;28;19973;-76
2023/03/14 03:52:28;;;;;;;;;;;;;;;7.61;38.71;99114.47;5074767;28;19916;-76
2023/03/14 03:54:53;;;;;;;;;;;;;;;7.57;39.55;99110.38;5092757;28;19965;-76
2023/03/14 03:57:19;;;;;;;;;;;;;;;7.56;39.50;99106.94;5092849;28;19973;-76
2023/03/14 03:59:44;;;;;;;;;;;;;;;7.53;39.27;99109.72;5089814;28;19920;-75
2023/03/14 04:02:09;;;;;;;;;;;;;;;7.53;39.80;99112.31;5075081;28;19922;-75
2023/03/14 04:04:35;;;;;;;;;;;;;;;7.52;39.62;99105.44;5093206;28;19920;-75
2023/03/14 04:07:00;;;;;;;;;;;;;;;7.54;39.27;99102.75;5092797;28;20383;-75
2023/03/14 04:09:25;;;;;;;;;;;;;;;7.53;39.52;99101.94;5090964;28;19916;-75
2023/03/14 04:11:51;;;;;;;;;;;;;;;7.52;39.01;99100.25;5092875;28;19916;-75
2023/03/14 04:14:16;;;;;;;;;;;;;;;7.51;39.49;99108.97;5092703;28;19982;-76
2023/03/14 04:16:41;;;;;;;;;;;;;;;7.49;40.17;99107.38;5074692;28;19923;-76
2023/03/14 04:19:07;;;;;;;;;;;;;;;7.46;39.99;99104.97;5090706;28;19919;-76
2023/03/14 04:21:32;;;;;;;;;;;;;;;7.47;39.44;99106.66;5092658;28;19939;-76
2023/03/14 04:23:57;;;;;;;;;;;;;;;7.48;39.60;99105.72;5075120;28;19916;-76
2023/03/14 04:26:22;;;;;;;;;;;;;;;7.49;39.79;99104.78;5093765;28;20323;-76
2023/03/14 04:28:48;;;;;;;;;;;;;;;7.48;39.55;99100.50;5078199;28;19946;-76
2023/03/14 04:31:18;;;;;;;;;;;;;;;7.46;40.21;99099.78;5078606;28;20014;-77
2023/03/14 04:33:43;;;;;;;;;;;;;;;7.48;39.66;99093.56;5079272;28;20286;-76
2023/03/14 04:36:08;;;;;;;;;;;;;;;7.66;39.78;99096.03;5095096;28;19923;-75
2023/03/14 04:38:34;;;;;;;;;;;;;;;7.86;39.35;99090.50;5078525;28;19922;-75
2023/03/14 04:41:00;;;;;;;;;;;;;;;8.29;38.24;99089.66;5096418;28;19999;-76
2023/03/14 04:43:25;;;;;;;;;;;;;;;8.84;37.53;99078.44;5096547;28;19916;-74
2023/03/14 04:45:51;;;;;;;;;;;;;;;9.37;36.58;99082.88;5078336;28;19959;-76
2023/03/14 04:48:16;;;;;;;;;;;;;;;10.27;57.10;99081.13;5095027;28;19967;-74
2023/03/14 04:50:42;;;;;;;;;;;;;;;11.45;57.33;99086.69;5098374;28;19923;-78
2023/03/14 04:53:07;;;;;;;;;;;;;;;11.94;41.48;99083.00;5078119;28;19916;-75
2023/03/14 04:55:34;;;;;;;;;;;;;;;12.45;39.32;99091.34;5078129;28;20019;-76
2023/03/14 04:57:59;;;;;;;;;;;;;;;12.88;37.20;99087.94;5095796;28;19976;-77
2023/03/14 05:00:25;;;;;;;;;;;;;;;13.37;34.59;99088.41;5095818;28;20385;-76
2023/03/14 05:02:50;;;;;;;;;;;;;;;13.86;32.84;99084.31;5096301;28;19922;-74
2023/03/14 05:05:15;;;;;;;;;;;;;;;14.90;45.03;99083.34;5077294;28;19924;-73
2023/03/14 05:07:40;;;;;;;;;;;;;;;16.00;43.60;99077.75;5094948;28;20428;-75
2023/03/14 05:10:06;;;;;;;;;;;;;;;17.23;44.36;99078.31;5094510;28;19920;-73
2023/03/14 05:12:31;;;;;;;;;;;;;;;18.16;36.81;99077.00;5077742;28;19958;-73
2023/03/14 05:14:57;;;;;;;;;;;;;;;18.51;31.58;99080.47;5077347;28;20019;-72
2023/03/14 05:17:22;;;;;;;;;;;;;;;18.74;29.18;99070.97;5095042;28;20386;-74
2023/03/14 05:19:47;;;;;;;;;;;;;;;18.89;27.38;99076.47;5094189;28;20369;-76
2023/03/14 05:22:13;;;;;;;;;;;;;;;19.12;26.09;99078.50;5094185;28;19920;-77
2023/03/14 05:24:38;;;;;;;;;;;;;;;19.38;25.08;99073.03;5095723;28;20437;-77
2023/03/14 05:27:03;;;;;;;;;;;;;;;19.74;24.22;99074.53;5077205;28;19931;-77
2023/03/14 05:29:29;;;;;;;;;;;;;;;19.86;23.62;99071.38;5094392;28;19959;-77
2023/03/14 05:31:54;;;;;;;;;;;;;;;20.18;23.15;99066.16;5095376;28;19916;-77
2023/03/14 05:34:19;;;;;;;;;;;;;;;20.42;22.83;99059.94;5096033;28;19917;-77
2023/03/14 05:36:44;;;;;;;;;;;;;;;20.57;22.34;99060.88;5076679;28;19924;-77
2023/03/14 05:39:10;;;;;;;;;;;;;;;20.83;21.82;99062.41;5085142;28;19946;-77
2023/03/14 05:41:35;;;;;;;;;;;;;;;21.18;21.51;99057.50;5093766;28;19920;-77
2023/03/14 05:44:01;;;;;;;;;;;;;;;21.44;20.81;99061.63;5084839;28;19923;-77
2023/03/14 05:46:26;;;;;;;;;;;;;;;21.74;20.54;99057.22;5095302;28;19927;-75
2023/03/14 05:48:51;;;;;;;;;;;;;;;22.07;20.22;99053.41;5110012;28;19916;-77
2023/03/14 05:51:17;;;;;;;;;;;;;;;22.31;19.38;99063.78;5093546;28;19973;-75
2023/03/14 05:53:42;;;;;;;;;;;;;;;22.67;19.03;99064.81;5093929;28;20395;-75
2023/03/14 05:56:07;;;;;;;;;;;;;;;22.89;18.98;99071.81;5094571;28;19916;-75
2023/03/14 05:58:33;;;;;;;;;;;;;;;23.14;18.63;99065.34;5093653;28;19923;-76
2023/03/14 06:01:01;;;;;;;;;;;;;;;23.26;18.42;99069.97;5076445;28;20754;-77
2023/03/14 06:03:26;;;;;;;;;;;;;;;23.54;18.03;99065.69;5076671;28;20361;-77
2023/03/14 06:05:52;;;;;;;;;;;;;;;23.73;17.68;99069.50;5060141;28;19965;-77
2023/03/14 06:08:17;;;;;;;;;;;;;;;23.94;17.57;99073.97;5072451;28;19916;-77
2023/03/14 06:10:42;;;;;;;;;;;;;;;24.15;17.57;99073.09;5094725;28;19966;-78
2023/03/14 06:13:08;;;;;;;;;;;;;;;24.33;17.29;99068.03;5076876;28;19916;-77
2023/03/14 06:15:33;;;;;;;;;;;;;;;24.47;17.06;99070.78;5094614;28;19955;-77
2023/03/14 06:17:58;;;;;;;;;;;;;;;24.63;17.06;99073.13;5095067;28;19916;-77
2023/03/14 06:20:24;;;;;;;;;;;;;;;24.80;17.09;99084.25;5076583;28;20020;-76
2023/03/14 06:22:49;;;;;;;;;;;;;;;24.98;16.80;99078.34;5076197;28;19916;-74
2023/03/14 06:25:14;;;;;;;;;;;;;;;25.13;16.86;99091.53;5076684;28;19920;-75
2023/03/14 06:27:40;;;;;;;;;;;;;;;25.34;16.60;99082.53;5059628;28;19924;-76
2023/03/14 06:30:05;;;;;;;;;;;;;;;25.49;16.78;99074.31;5094407;28;20378;-76
2023/03/14 06:32:31;;;;;;;;;;;;;;;25.63;22.50;99069.78;5075674;28;19916;-77
2023/03/14 06:34:57;;;;;;;;;;;;;;;25.61;22.50;99072.66;5083260;28;19964;-77
2023/03/14 06:37:22;;;;;;;;;;;;;;;25.59;21.77;99065.91;5093284;28;19920;-76
2023/03/14 06:39:47;;;;;;;;;;;;;;;25.92;21.61;99068.53;5093042;28;19955;-77
2023/03/14 06:42:13;;;;;;;;;;;;;;;26.14;21.28;99070.94;5094477;28;19916;-76
2023/03/14 06:44:38;;;;;;;;;;;;;;;26.09;21.74;99068.09;5094371;28;20356;-76
2023/03/14 06:47:03;;;;;;;;;;;;;;;26.13;21.06;99074.69;5094028;28;20015;-77
2023/03/14 06:49:29;;;;;;;;;;;;;;;26.08;20.80;99063.78;5093028;28;19920;-78
2023/03/14 06:51:54;;;;;;;;;;;;;;;26.22;20.08;99067.22;5093071;28;19916;-78
2023/03/14 06:54:19;;;;;;;;;;;;;;;26.47;19.94;99062.84;5094325;28;19916;-76
2023/03/14 06:56:44;;;;;;;;;;;;;;;26.73;20.19;99061.09;5094051;28;19916;-78
2023/03/14 06:59:10;;;;;;;;;;;;;;;26.97;19.16;99064.84;5093014;28;19916;-76
2023/03/14 07:01:35;;;;;;;;;;;;;;;27.14;17.88;99054.44;5093822;28;19923;-79
2023/03/14 07:04:01;;;;;;;;;;;;;;;27.41;17.50;99057.75;5075816;28;19973;-75
2023/03/14 07:06:26;;;;;;;;;;;;;;;27.57;16.44;99059.06;5075558;28;19916;-77
2023/03/14 07:08:51;;;;;;;;;;;;;;;27.76;15.87;99054.56;5093990;28;19916;-75
2023/03/14 07:11:17;;;;;;;;;;;;;;;28.00;15.65;99057.44;5093859;28;20383;-76
2023/03/14 07:13:42;;;;;;;;;;;;;;;28.23;15.33;99047.88;5092389;28;20436;-80
2023/03/14 07:16:08;;;;;;;;;;;;;;;28.42;15.16;99057.59;5087361;28;19920;-76
2023/03/14 07:18:33;;;;;;;;;;;;;;;28.61;14.89;99050.34;5074695;28;19931;-73
2023/03/14 07:20:58;;;;;;;;;;;;;;;28.66;14.56;99047.78;5063040;28;19916;-75
2023/03/14 07:23:23;;;;;;;;;;;;;;;28.75;14.47;99042.94;5092302;28;19916;-76
2023/03/14 07:25:50;;;;;;;;;;;;;;;28.76;14.61;99041.06;5093153;28;19924;-74
2023/03/14 07:28:15;;;;;;;;;;;;;;;28.78;14.39;99036.25;5091908;28;19927;-75
2023/03/14 07:30:41;;;;;;;;;;;;;;;28.80;14.70;99035.00;5093159;28;19920;-76
2023/03/14 07:33:06;;;;;;;;;;;;;;;28.93;14.47;99030.47;5074736;28;20394;-75
2023/03/14 07:35:31;;;;;;;;;;;;;;;29.04;14.22;99035.88;5093112;28;19916;-75
2023/03/14 07:37:57;;;;;;;;;;;;;;;29.18;13.92;99031.13;5074479;28;19920;-79
2023/03/14 07:40:22;;;;;;;;;;;;;;;29.13;13.93;99030.16;5091899;28;19923;-77
2023/03/14 07:42:49;;;;;;;;;;;;;;;29.16;14.25;99021.63;5091683;28;19920;-77
2023/03/14 07:45:14;;;;;;;;;;;;;;;29.26;14.47;99027.31;5074839;28;19916;-74
2023/03/14 07:47:40;;;;;;;;;;;;;;;29.36;17.12;99024.03;5091346;28;19966;-76
2023/03/14 07:50:05;;;;;;;;;;;;;;;29.50;18.06;99025.44;5074875;28;20003;-74
2023/03/14 07:52:30;;;;;;;;;;;;;;;29.56;18.08;99023.69;5074852;28;19916;-74
2023/03/14 07:54:56;;;;;;;;;;;;;;;29.65;18.16;99024.97;5074861;28;19916;-72
2023/03/14 07:57:21;;;;;;;;;;;;;;;29.57;18.94;99019.94;5093078;28;19916;-75
2023/03/14 07:59:47;;;;;;;;;;;;;;;29.51;18.76;99012.78;5090782;28;20284;-74
2023/03/14 08:02:12;;;;;;;;;;;;;;;29.52;19.20;99014.44;5092810;28;20003;-78
2023/03/14 08:04:38;;;;;;;;;;;;;;;29.54;18.97;99007.78;5073745;28;20348;-77
2023/03/14 08:07:03;;;;;;;;;;;;;;;29.56;18.89;99010.25;5075074;28;19916;-78
2023/03/14 08:09:29;;;;;;;;;;;;;;;29.59;20.17;99015.97;5090848;28;19920;-76
2023/03/14 08:11:56;;;;;;;;;;;;;;;29.88;19.84;99002.63;5091363;28;19916;-78
2023/03/14 08:14:23;;;;;;;;;;;;;;;30.02;19.05;99003.19;5075219;28;20394;-77
2023/03/14 08:16:49;;;;;;;;;;;;;;;30.07;17.64;99002.47;5075463;28;20386;-79
2023/03/14 08:19:14;;;;;;;;;;;;;;;30.23;17.74;99000.91;5091416;28;19912;-74
2023/03/14 08:21:39;;;;;;;;;;;;;;;30.20;16.47;98996.00;5098742;28;20367;-79
2023/03/14 08:24:05;;;;;;;;;;;;;;;29.87;18.12;98984.03;5093717;28;19916;-78
2023/03/14 08:26:30;;;;;;;;;;;;;;;29.54;16.66;98991.66;5074998;28;19980;-78
2023/03/14 08:28:56;;;;;;;;;;;;;;;29.19;17.71;98989.78;5095706;28;20280;-87
2023/03/14 08:31:21;;;;;;;;;;;;;;;29.05;17.14;98989.16;5079604;28;19923;-84
2023/03/14 08:33:51;;;;;;;;;;;;;;;28.47;13.79;98981.72;5107420;28;19920;-88
2023/03/14 08:36:20;;;;;;;;;;;;;;;27.79;14.58;98973.66;5123721;28;19920;-88
2023/03/14 08:38:45;;;;;;;;;;;;;;;27.67;13.93;98972.75;5109259;27;19920;-90
2023/03/14 08:41:11;;;;;;;;;;;;;;;27.44;14.70;98968.84;5090759;28;19940;-88
2023/03/14 08:43:37;;;;;;;;;;;;;;;27.31;15.76;98969.00;5104725;28;19970;-85
2023/03/14 08:46:03;;;;;;;;;;;;;;;27.57;18.60;98967.91;5096681;28;19920;-86
2023/03/14 08:48:29;;;;;;;;;;;;;;;27.87;17.32;98967.16;5098585;28;19927;-81
2023/03/14 08:51:04;;;;;;;;;;;;;;;28.18;16.94;98959.19;5093397;28;20252;-80
2023/03/14 08:53:29;;;;;;;;;;;;;;;28.06;16.37;98953.78;5075800;28;19966;-78
2023/03/14 08:55:54;;;;;;;;;;;;;;;27.59;16.50;98954.28;5074942;28;19981;-77
2023/03/14 08:58:21;;;;;;;;;;;;;;;27.36;19.10;98949.59;5074751;28;20426;-76
2023/03/14 09:00:46;;;;;;;;;;;;;;;27.79;18.58;98951.38;5075012;28;19922;-78
2023/03/14 09:03:13;;;;;;;;;;;;;;;28.25;17.93;98946.50;5091500;28;19920;-78
2023/03/14 09:05:38;;;;;;;;;;;;;;;28.62;17.35;98944.56;5092540;28;20390;-79
2023/03/14 09:08:05;;;;;;;;;;;;;;;28.97;16.79;98943.81;5092331;28;19922;-81
2023/03/14 09:10:30;;;;;;;;;;;;;;;29.27;16.46;98942.94;5087421;28;19920;-81
2023/03/14 09:13:00;;;;;;;;;;;;;;;29.49;15.84;98935.03;5079336;28;19924;-82
2023/03/14 09:15:31;;;;;;;;;;;;;;;29.68;15.67;98934.91;5099375;28;19916;-86
2023/03/14 09:17:59;;;;;;;;;;;;;;;29.14;13.82;98921.59;5107759;28;19922;-83
2023/03/14 09:20:35;;;;;;;;;;;;;;;28.59;16.27;98920.84;5108419;28;19924;-87
2023/03/14 09:23:30;;;;;;;;;;;;;;;28.08;14.96;98922.16;5112088;28;19916;-83
2023/03/14 09:26:21;;;;;;;;;;;;;;;27.47;14.31;98922.03;5085794;28;19911;-86
2023/03/14 09:28:50;;;;;;;;;;;;;;;26.53;17.88;98920.13;5086431;28;19916;-86
2023/03/14 09:31:27;;;;;;;;;;;;;;;26.16;15.86;98909.22;5083200;28;19917;-85
2023/03/14 09:33:57;;;;;;;;;;;;;;;25.54;18.54;98906.16;5045988;28;19901;-84
2023/03/14 09:36:22;;;;;;;;;;;;;;;25.55;16.61;98899.75;5026467;28;19967;-84
2023/03/14 09:38:48;;;;;;;;;;;;;;;25.91;17.33;98894.91;5040248;28;19927;-79
2023/03/14 09:41:32;;;;;;;;;;;;;;;26.14;16.55;98891.72;5074202;28;19916;-80
2023/03/14 09:44:21;;;;;;;;;;;;;;;26.44;16.11;98891.13;5072048;28;20107;-83
2023/03/14 09:46:48;;;;;;;;;;;;;;;26.71;15.85;98870.38;5080670;28;19997;-83
2023/03/14 09:49:23;;;;;;;;;;;;;;;26.71;15.46;98873.88;5067571;28;20407;-82
2023/03/14 09:51:58;;;;;;;;;;;;;;;26.36;14.77;98868.97;5084530;28;20008;-88
2023/03/14 09:54:35;;;;;;;;;;;;;;;26.30;14.75;98875.16;5073246;28;19924;-80
2023/03/14 09:57:00;;;;;;;;;;;;;;;26.41;14.86;98870.16;5079256;28;20450;-83
2023/03/14 09:59:26;;;;;;;;;;;;;;;26.52;15.03;98864.94;5077812;28;19956;-85
2023/03/14 10:01:51;;;;;;;;;;;;;;;26.52;14.96;98858.75;5060436;28;19917;-87
2023/03/14 10:04:17;;;;;;;;;;;;;;;26.55;15.11;98860.97;5057386;28;19916;-83
2023/03/14 10:06:42;;;;;;;;;;;;;;;26.51;14.87;98854.44;5044013;28;19940;-85
2023/03/14 10:09:17;;;;;;;;;;;;;;;26.52;15.11;98856.91;5075550;28;19984;-86
2023/03/14 10:11:43;;;;;;;;;;;;;;;26.43;14.81;98850.16;5040236;28;19916;-83
2023/03/14 10:14:09;;;;;;;;;;;;;;;26.53;14.99;98852.34;5076669;28;19923;-89
2023/03/14 10:16:36;;;;;;;;;;;;;;;26.53;14.64;98844.31;5060796;28;19972;-86
2023/03/14 10:19:02;;;;;;;;;;;;;;;26.66;15.07;98838.06;5044088;28;19916;-86
2023/03/14 10:21:28;;;;;;;;;;;;;;;26.63;14.64;98831.28;5059285;28;19916;-83
2023/03/14 10:23:53;;;;;;;;;;;;;;;26.51;14.55;98830.34;5074176;28;19916;-85
2023/03/14 10:26:23;;;;;;;;;;;;;;;26.47;14.82;98818.44;5081557;28;19926;-87
2023/03/14 10:28:52;;;;;;;;;;;;;;;26.38;14.80;98823.25;5082090;28;19928;-87
2023/03/14 10:31:17;;;;;;;;;;;;;;;26.27;14.70;98816.75;5101745;28;19924;-86
2023/03/14 10:33:43;;;;;;;;;;;;;;;26.21;14.70;98814.13;5083624;28;19916;-88
2023/03/14 10:36:17;;;;;;;;;;;;;;;26.08;14.81;98809.69;5099713;28;19916;-91
2023/03/14 10:38:42;;;;;;;;;;;;;;;25.95;14.81;98800.66;5082650;28;19916;-87
2023/03/14 10:41:15;;;;;;;;;;;;;;;25.78;14.80;98797.69;5099909;28;19923;-88
2023/03/14 10:43:41;;;;;;;;;;;;;;;25.66;15.07;98787.88;5099032;28;19916;-88
2023/03/14 10:46:08;;;;;;;;;;;;;;;25.54;15.21;98787.72;5080791;28;20066;-83
2023/03/14 10:48:35;;;;;;;;;;;;;;;25.41;15.14;98781.44;5098567;28;20318;-86
2023/03/14 10:51:01;;;;;;;;;;;;;;;25.28;15.51;98774.25;5099830;28;19939;-87
2023/03/14 10:53:26;;;;;;;;;;;;;;;25.19;15.56;98769.34;5096984;28;20374;-89
2023/03/14 10:55:51;;;;;;;;;;;;;;;25.09;15.79;98761.78;5079103;28;19923;-88
2023/03/14 10:58:18;;;;;;;;;;;;;;;24.74;15.29;98757.56;5095059;28;19942;-85
2023/03/14 11:00:44;;;;;;;;;;;;;;;24.53;15.41;98750.59;5079128;28;19916;-83
2023/03/14 11:03:12;;;;;;;;;;;;;;;24.50;15.49;98744.84;5086926;28;20433;-87
2023/03/14 11:05:49;;;;;;;;;;;;;;;24.52;15.65;98734.78;5080253;28;19931;-87
2023/03/14 11:08:18;;;;;;;;;;;;;;;24.41;15.90;98730.88;5059157;28;19916;-85
2023/03/14 11:10:43;;;;;;;;;;;;;;;24.20;15.99;98735.41;5075176;28;19916;-83
2023/03/14 11:13:16;;;;;;;;;;;;;;;24.03;15.36;98720.84;5077339;28;20006;-85
2023/03/14 11:16:00;;;;;;;;;;;;;;;23.93;15.92;98720.44;5061389;28;19924;-87
2023/03/14 11:18:44;;;;;;;;;;;;;;;23.75;16.07;98713.84;5077996;28;20315;-88
2023/03/14 11:21:24;;;;;;;;;;;;;;;23.74;16.04;98709.53;5077241;28;19923;-90
2023/03/14 11:24:05;;;;;;;;;;;;;;;23.65;16.36;98692.88;5075485;28;19916;-86
2023/03/14 11:26:51;;;;;;;;;;;;;;;23.36;16.47;98690.59;5076571;28;19927;-86
2023/03/14 11:29:35;;;;;;;;;;;;;;;23.27;16.41;98685.44;5074955;28;20007;-85
2023/03/14 11:32:01;;;;;;;;;;;;;;;22.97;16.75;98681.41;5075203;28;20391;-89
2023/03/14 11:34:38;;;;;;;;;;;;;;;22.76;17.06;98670.69;5057146;28;19952;-88
2023/03/14 11:37:04;;;;;;;;;;;;;;;22.55;17.23;98657.47;5073713;28;19946;-89
2023/03/14 11:39:35;;;;;;;;;;;;;;;22.44;16.86;98660.66;5074518;28;19927;-87
2023/03/14 11:42:01;;;;;;;;;;;;;;;22.16;17.49;98646.38;5075065;28;19920;-90
2023/03/14 11:44:30;;;;;;;;;;;;;;;21.84;17.81;98648.59;5075010;28;20024;-87
2023/03/14 11:47:07;;;;;;;;;;;;;;;21.80;18.16;98633.22;5059304;28;20023;-87
2023/03/14 11:49:40;;;;;;;;;;;;;;;21.76;17.70;98621.31;5075572;28;19923;-87
2023/03/14 11:52:06;;;;;;;;;;;;;;;21.28;18.38;98619.22;5075538;28;19916;-87
2023/03/14 11:54:37;;;;;;;;;;;;;;;21.08;18.17;98621.66;5058317;28;19917;-88
2023/03/14 11:57:10;;;;;;;;;;;;;;;20.95;18.41;98619.69;5059195;28;19920;-87
2023/03/14 11:59:42;;;;;;;;;;;;;;;20.81;18.68;98618.72;5060369;28;19971;-85
2023/03/14 12:02:19;;;;;;;;;;;;;;;20.79;18.65;98610.13;5075220;28;20015;-86
2023/03/14 12:05:08;;;;;;;;;;;;;;;20.74;18.69;98589.44;5075459;28;19916;-86
2023/03/14 12:07:51;;;;;;;;;;;;;;;20.67;18.50;98601.84;5014968;28;19917;-85
2023/03/14 12:10:16;;;;;;;;;;;;;;;20.43;18.74;98597.63;5014123;28;19917;-86
2023/03/14 12:12:41;;;;;;;;;;;;;;;20.19;19.15;98588.94;5014040;28;19918;-87
2023/03/14 12:15:15;;;;;;;;;;;;;;;20.12;19.46;98569.47;4982160;28;19921;-86
2023/03/14 12:17:42;;;;;;;;;;;;;;;20.06;19.46;98581.59;5000427;28;19917;-86
2023/03/14 12:20:23;;;;;;;;;;;;;;;19.93;19.66;98570.84;4997514;28;19921;-88
2023/03/14 12:22:52;;;;;;;;;;;;;;;19.92;19.69;98565.72;4981529;28;19918;-85
2023/03/14 12:25:18;;;;;;;;;;;;;;;19.76;19.81;98556.91;4995691;28;19976;-88
2023/03/14 12:27:45;;;;;;;;;;;;;;;19.72;19.72;98555.63;5015170;28;19973;-86
2023/03/14 12:30:20;;;;;;;;;;;;;;;19.66;19.97;98565.09;4998919;28;19984;-85
2023/03/14 12:33:05;;;;;;;;;;;;;;;19.42;19.93;98554.72;5014986;28;19929;-86
2023/03/14 12:35:36;;;;;;;;;;;;;;;19.23;20.39;98546.28;4998356;28;20359;-86
2023/03/14 12:38:03;;;;;;;;;;;;;;;19.01;20.50;98545.28;5012464;28;19987;-85
2023/03/14 12:40:35;;;;;;;;;;;;;;;18.86;20.62;98533.81;4995090;28;19939;-86
2023/03/14 12:43:01;;;;;;;;;;;;;;;18.89;20.61;98541.38;4995669;28;19924;-87
2023/03/14 12:45:26;;;;;;;;;;;;;;;18.50;21.15;98526.38;5049777;28;19924;-84
2023/03/14 12:47:51;;;;;;;;;;;;;;;18.40;21.24;98524.75;5076084;28;19916;-85
2023/03/14 12:50:21;;;;;;;;;;;;;;;18.43;21.18;98537.63;5077275;28;19920;-85